sensor_id;sensor_type;location;lat;lon;timestamp;P1;durP1;ratioP1;P2;durP2;ratioP2
36497;SDS011;22513;51.222;6.480;2022-09-24T00:01:52;19.52;;;13.93;;
36497;SDS011;22513;51.222;6.480;2022-09-24T00:04:17;21.27;;;14.23;;
36497;SDS011;22513;51.222;6.480;2022-09-24T00:06:44;22.85;;;15.05;;
36497;SDS011;22513;51.222;6.480;2022-09-24T00:09:15;15.80;;;12.85;;
36497;SDS011;22513;51.222;6.480;2022-09-24T00:11:46;17.90;;;13.75;;
36497;SDS011;22513;51.222;6.480;2022-09-24T00:14:13;17.48;;;12.80;;
36497;SDS011;22513;51.222;6.480;2022-09-24T00:16:40;17.00;;;13.32;;
36497;SDS011;22513;51.222;6.480;2022-09-24T00:19:09;19.70;;;12.98;;
36497;SDS011;22513;51.222;6.480;2022-09-24T00:21:36;23.90;;;13.23;;
36497;SDS011;22513;51.222;6.480;2022-09-24T00:24:04;17.83;;;12.05;;
36497;SDS011;22513;51.222;6.480;2022-09-24T00:26:31;20.47;;;13.20;;
36497;SDS011;22513;51.222;6.480;2022-09-24T00:29:17;18.52;;;12.77;;
36497;SDS011;22513;51.222;6.480;2022-09-24T00:31:45;19.83;;;13.27;;
36497;SDS011;22513;51.222;6.480;2022-09-24T00:34:10;18.27;;;13.63;;
36497;SDS011;22513;51.222;6.480;2022-09-24T00:36:36;21.77;;;13.23;;
36497;SDS011;22513;51.222;6.480;2022-09-24T00:39:02;19.20;;;13.15;;
36497;SDS011;22513;51.222;6.480;2022-09-24T00:41:30;21.40;;;13.38;;
36497;SDS011;22513;51.222;6.480;2022-09-24T00:43:58;21.70;;;13.82;;
36497;SDS011;22513;51.222;6.480;2022-09-24T00:46:30;17.73;;;12.85;;
36497;SDS011;22513;51.222;6.480;2022-09-24T00:49:05;19.98;;;12.60;;
36497;SDS011;22513;51.222;6.480;2022-09-24T00:51:40;21.13;;;13.45;;
36497;SDS011;22513;51.222;6.480;2022-09-24T00:54:08;19.35;;;13.88;;
36497;SDS011;22513;51.222;6.480;2022-09-24T00:56:38;19.80;;;13.05;;
36497;SDS011;22513;51.222;6.480;2022-09-24T00:59:05;16.33;;;12.15;;
36497;SDS011;22513;51.222;6.480;2022-09-24T01:01:34;18.25;;;13.05;;
36497;SDS011;22513;51.222;6.480;2022-09-24T01:04:00;17.98;;;13.68;;
36497;SDS011;22513;51.222;6.480;2022-09-24T01:06:28;19.55;;;13.23;;
36497;SDS011;22513;51.222;6.480;2022-09-24T01:08:54;17.15;;;12.95;;
36497;SDS011;22513;51.222;6.480;2022-09-24T01:16:44;19.73;;;13.18;;
36497;SDS011;22513;51.222;6.480;2022-09-24T01:21:55;19.27;;;13.68;;
36497;SDS011;22513;51.222;6.480;2022-09-24T01:29:56;23.40;;;14.45;;
36497;SDS011;22513;51.222;6.480;2022-09-24T01:35:19;17.05;;;13.27;;
36497;SDS011;22513;51.222;6.480;2022-09-24T01:37:57;18.50;;;13.18;;
36497;SDS011;22513;51.222;6.480;2022-09-24T01:40:27;19.30;;;13.20;;
36497;SDS011;22513;51.222;6.480;2022-09-24T01:42:54;18.75;;;13.07;;
36497;SDS011;22513;51.222;6.480;2022-09-24T01:45:21;17.98;;;13.57;;
36497;SDS011;22513;51.222;6.480;2022-09-24T01:47:49;22.60;;;14.25;;
36497;SDS011;22513;51.222;6.480;2022-09-24T01:50:16;21.50;;;13.30;;
36497;SDS011;22513;51.222;6.480;2022-09-24T01:55:16;19.40;;;13.65;;
36497;SDS011;22513;51.222;6.480;2022-09-24T01:57:48;19.10;;;14.23;;
36497;SDS011;22513;51.222;6.480;2022-09-24T02:00:19;20.10;;;14.57;;
36497;SDS011;22513;51.222;6.480;2022-09-24T02:02:53;20.60;;;14.82;;
36497;SDS011;22513;51.222;6.480;2022-09-24T02:05:37;23.92;;;15.35;;
36497;SDS011;22513;51.222;6.480;2022-09-24T02:08:21;19.85;;;13.90;;
36497;SDS011;22513;51.222;6.480;2022-09-24T02:10:59;22.08;;;14.23;;
36497;SDS011;22513;51.222;6.480;2022-09-24T02:13:32;22.58;;;15.57;;
36497;SDS011;22513;51.222;6.480;2022-09-24T02:16:03;20.92;;;14.93;;
36497;SDS011;22513;51.222;6.480;2022-09-24T02:18:32;21.30;;;14.45;;
36497;SDS011;22513;51.222;6.480;2022-09-24T02:21:03;22.65;;;15.60;;
36497;SDS011;22513;51.222;6.480;2022-09-24T02:23:34;22.90;;;16.25;;
36497;SDS011;22513;51.222;6.480;2022-09-24T02:26:02;21.90;;;14.88;;
36497;SDS011;22513;51.222;6.480;2022-09-24T02:28:29;25.17;;;16.60;;
36497;SDS011;22513;51.222;6.480;2022-09-24T02:30:59;21.95;;;15.77;;
36497;SDS011;22513;51.222;6.480;2022-09-24T02:33:32;20.00;;;16.02;;
36497;SDS011;22513;51.222;6.480;2022-09-24T02:36:17;22.52;;;16.65;;
36497;SDS011;22513;51.222;6.480;2022-09-24T02:38:44;24.77;;;16.65;;
36497;SDS011;22513;51.222;6.480;2022-09-24T02:41:12;23.88;;;17.13;;
36497;SDS011;22513;51.222;6.480;2022-09-24T02:43:39;28.30;;;18.25;;
36497;SDS011;22513;51.222;6.480;2022-09-24T02:46:05;25.17;;;18.42;;
36497;SDS011;22513;51.222;6.480;2022-09-24T02:48:32;29.77;;;18.92;;
36497;SDS011;22513;51.222;6.480;2022-09-24T02:50:57;25.40;;;18.77;;
36497;SDS011;22513;51.222;6.480;2022-09-24T02:53:23;29.33;;;18.92;;
36497;SDS011;22513;51.222;6.480;2022-09-24T02:55:49;28.48;;;18.58;;
36497;SDS011;22513;51.222;6.480;2022-09-24T02:58:14;26.73;;;18.48;;
36497;SDS011;22513;51.222;6.480;2022-09-24T03:00:40;26.42;;;20.10;;
36497;SDS011;22513;51.222;6.480;2022-09-24T03:03:05;28.38;;;18.90;;
36497;SDS011;22513;51.222;6.480;2022-09-24T03:05:31;26.00;;;19.10;;
36497;SDS011;22513;51.222;6.480;2022-09-24T03:07:56;27.10;;;19.10;;
36497;SDS011;22513;51.222;6.480;2022-09-24T03:10:23;25.20;;;18.88;;
36497;SDS011;22513;51.222;6.480;2022-09-24T03:12:48;28.35;;;20.45;;
36497;SDS011;22513;51.222;6.480;2022-09-24T03:15:14;29.70;;;19.75;;
36497;SDS011;22513;51.222;6.480;2022-09-24T03:17:40;29.33;;;19.23;;
36497;SDS011;22513;51.222;6.480;2022-09-24T03:20:05;27.85;;;20.05;;
36497;SDS011;22513;51.222;6.480;2022-09-24T03:22:31;31.35;;;20.02;;
36497;SDS011;22513;51.222;6.480;2022-09-24T03:24:57;29.38;;;19.95;;
36497;SDS011;22513;51.222;6.480;2022-09-24T03:27:22;33.65;;;21.63;;
36497;SDS011;22513;51.222;6.480;2022-09-24T03:29:48;30.58;;;20.58;;
36497;SDS011;22513;51.222;6.480;2022-09-24T03:32:32;30.48;;;21.67;;
36497;SDS011;22513;51.222;6.480;2022-09-24T03:34:58;31.27;;;20.40;;
36497;SDS011;22513;51.222;6.480;2022-09-24T03:37:25;31.05;;;20.80;;
36497;SDS011;22513;51.222;6.480;2022-09-24T03:39:51;30.50;;;20.88;;
36497;SDS011;22513;51.222;6.480;2022-09-24T03:42:20;27.95;;;20.27;;
36497;SDS011;22513;51.222;6.480;2022-09-24T03:44:45;29.70;;;20.83;;
36497;SDS011;22513;51.222;6.480;2022-09-24T03:47:11;33.70;;;21.77;;
36497;SDS011;22513;51.222;6.480;2022-09-24T03:49:36;27.15;;;19.65;;
36497;SDS011;22513;51.222;6.480;2022-09-24T03:52:02;31.48;;;20.42;;
36497;SDS011;22513;51.222;6.480;2022-09-24T03:54:27;31.17;;;21.05;;
36497;SDS011;22513;51.222;6.480;2022-09-24T03:56:53;30.02;;;21.08;;
36497;SDS011;22513;51.222;6.480;2022-09-24T03:59:18;30.48;;;20.52;;
36497;SDS011;22513;51.222;6.480;2022-09-24T04:01:44;31.25;;;21.02;;
36497;SDS011;22513;51.222;6.480;2022-09-24T04:04:09;33.00;;;20.58;;
36497;SDS011;22513;51.222;6.480;2022-09-24T04:06:38;30.40;;;21.13;;
36497;SDS011;22513;51.222;6.480;2022-09-24T04:09:03;33.92;;;20.30;;
36497;SDS011;22513;51.222;6.480;2022-09-24T04:11:29;32.15;;;21.92;;
36497;SDS011;22513;51.222;6.480;2022-09-24T04:13:55;30.60;;;20.42;;
36497;SDS011;22513;51.222;6.480;2022-09-24T04:16:22;35.88;;;20.35;;
36497;SDS011;22513;51.222;6.480;2022-09-24T04:18:48;30.17;;;20.15;;
36497;SDS011;22513;51.222;6.480;2022-09-24T04:21:14;29.58;;;19.13;;
36497;SDS011;22513;51.222;6.480;2022-09-24T04:23:40;35.45;;;20.88;;
36497;SDS011;22513;51.222;6.480;2022-09-24T04:26:06;35.97;;;21.50;;
36497;SDS011;22513;51.222;6.480;2022-09-24T04:28:32;34.95;;;21.45;;
36497;SDS011;22513;51.222;6.480;2022-09-24T04:30:57;33.00;;;21.25;;
36497;SDS011;22513;51.222;6.480;2022-09-24T04:33:23;36.75;;;20.35;;
36497;SDS011;22513;51.222;6.480;2022-09-24T04:35:49;35.65;;;22.02;;
36497;SDS011;22513;51.222;6.480;2022-09-24T04:38:14;31.73;;;20.65;;
36497;SDS011;22513;51.222;6.480;2022-09-24T04:40:40;27.83;;;19.45;;
36497;SDS011;22513;51.222;6.480;2022-09-24T04:43:05;34.10;;;21.70;;
36497;SDS011;22513;51.222;6.480;2022-09-24T04:45:34;36.95;;;20.77;;
36497;SDS011;22513;51.222;6.480;2022-09-24T04:48:01;31.90;;;20.00;;
36497;SDS011;22513;51.222;6.480;2022-09-24T04:50:27;32.28;;;21.35;;
36497;SDS011;22513;51.222;6.480;2022-09-24T04:52:57;38.30;;;21.30;;
36497;SDS011;22513;51.222;6.480;2022-09-24T04:55:23;34.30;;;20.25;;
36497;SDS011;22513;51.222;6.480;2022-09-24T04:57:50;35.88;;;21.15;;
36497;SDS011;22513;51.222;6.480;2022-09-24T05:00:16;32.20;;;20.25;;
36497;SDS011;22513;51.222;6.480;2022-09-24T05:02:44;34.93;;;20.73;;
36497;SDS011;22513;51.222;6.480;2022-09-24T05:05:11;34.03;;;21.08;;
36497;SDS011;22513;51.222;6.480;2022-09-24T05:07:37;32.95;;;19.83;;
36497;SDS011;22513;51.222;6.480;2022-09-24T05:10:03;36.38;;;21.60;;
36497;SDS011;22513;51.222;6.480;2022-09-24T05:12:30;33.72;;;20.25;;
36497;SDS011;22513;51.222;6.480;2022-09-24T05:14:56;37.30;;;22.27;;
36497;SDS011;22513;51.222;6.480;2022-09-24T05:17:21;33.55;;;19.95;;
36497;SDS011;22513;51.222;6.480;2022-09-24T05:19:47;40.90;;;21.08;;
36497;SDS011;22513;51.222;6.480;2022-09-24T05:22:13;30.25;;;20.55;;
36497;SDS011;22513;51.222;6.480;2022-09-24T05:24:38;39.80;;;21.90;;
36497;SDS011;22513;51.222;6.480;2022-09-24T05:27:04;39.30;;;22.15;;
36497;SDS011;22513;51.222;6.480;2022-09-24T05:32:05;34.28;;;22.30;;
36497;SDS011;22513;51.222;6.480;2022-09-24T05:34:32;35.65;;;22.02;;
36497;SDS011;22513;51.222;6.480;2022-09-24T05:36:58;32.35;;;21.13;;
36497;SDS011;22513;51.222;6.480;2022-09-24T05:39:25;35.60;;;21.88;;
36497;SDS011;22513;51.222;6.480;2022-09-24T05:41:50;34.47;;;22.98;;
36497;SDS011;22513;51.222;6.480;2022-09-24T05:44:16;36.40;;;21.48;;
36497;SDS011;22513;51.222;6.480;2022-09-24T05:46:45;30.17;;;21.10;;
36497;SDS011;22513;51.222;6.480;2022-09-24T05:49:11;34.78;;;21.60;;
36497;SDS011;22513;51.222;6.480;2022-09-24T05:51:37;35.17;;;21.00;;
36497;SDS011;22513;51.222;6.480;2022-09-24T05:54:02;29.48;;;19.90;;
36497;SDS011;22513;51.222;6.480;2022-09-24T05:56:28;33.22;;;20.27;;
36497;SDS011;22513;51.222;6.480;2022-09-24T05:58:54;35.17;;;20.85;;
36497;SDS011;22513;51.222;6.480;2022-09-24T06:01:19;32.13;;;19.83;;
36497;SDS011;22513;51.222;6.480;2022-09-24T06:03:45;30.55;;;19.90;;
36497;SDS011;22513;51.222;6.480;2022-09-24T06:06:10;35.00;;;18.85;;
36497;SDS011;22513;51.222;6.480;2022-09-24T06:08:36;30.15;;;19.17;;
36497;SDS011;22513;51.222;6.480;2022-09-24T06:11:02;28.00;;;18.73;;
36497;SDS011;22513;51.222;6.480;2022-09-24T06:13:30;24.88;;;17.40;;
36497;SDS011;22513;51.222;6.480;2022-09-24T06:16:01;26.77;;;17.02;;
36497;SDS011;22513;51.222;6.480;2022-09-24T06:18:35;27.35;;;18.10;;
36497;SDS011;22513;51.222;6.480;2022-09-24T06:21:05;29.40;;;15.68;;
36497;SDS011;22513;51.222;6.480;2022-09-24T06:23:32;23.13;;;15.77;;
36497;SDS011;22513;51.222;6.480;2022-09-24T06:25:58;24.98;;;15.73;;
36497;SDS011;22513;51.222;6.480;2022-09-24T06:28:24;22.73;;;15.35;;
36497;SDS011;22513;51.222;6.480;2022-09-24T06:30:50;22.17;;;15.50;;
36497;SDS011;22513;51.222;6.480;2022-09-24T06:33:16;20.50;;;14.63;;
36497;SDS011;22513;51.222;6.480;2022-09-24T06:35:42;24.70;;;15.15;;
36497;SDS011;22513;51.222;6.480;2022-09-24T06:38:12;22.52;;;13.95;;
36497;SDS011;22513;51.222;6.480;2022-09-24T06:40:39;23.52;;;14.43;;
36497;SDS011;22513;51.222;6.480;2022-09-24T06:43:05;23.45;;;14.68;;
36497;SDS011;22513;51.222;6.480;2022-09-24T06:45:33;24.10;;;14.25;;
36497;SDS011;22513;51.222;6.480;2022-09-24T06:48:00;19.10;;;13.50;;
36497;SDS011;22513;51.222;6.480;2022-09-24T06:50:27;20.65;;;15.13;;
36497;SDS011;22513;51.222;6.480;2022-09-24T06:52:55;21.92;;;13.95;;
36497;SDS011;22513;51.222;6.480;2022-09-24T06:55:21;22.73;;;13.10;;
36497;SDS011;22513;51.222;6.480;2022-09-24T06:57:46;23.17;;;13.70;;
36497;SDS011;22513;51.222;6.480;2022-09-24T07:00:12;27.13;;;14.38;;
36497;SDS011;22513;51.222;6.480;2022-09-24T07:02:39;21.52;;;12.38;;
36497;SDS011;22513;51.222;6.480;2022-09-24T07:05:05;21.23;;;14.70;;
36497;SDS011;22513;51.222;6.480;2022-09-24T07:07:32;28.08;;;13.95;;
36497;SDS011;22513;51.222;6.480;2022-09-24T07:09:59;23.95;;;13.20;;
36497;SDS011;22513;51.222;6.480;2022-09-24T07:12:30;20.98;;;13.40;;
36497;SDS011;22513;51.222;6.480;2022-09-24T07:17:22;19.58;;;12.95;;
36497;SDS011;22513;51.222;6.480;2022-09-24T07:19:48;22.30;;;13.18;;
36497;SDS011;22513;51.222;6.480;2022-09-24T07:22:14;22.17;;;14.38;;
36497;SDS011;22513;51.222;6.480;2022-09-24T07:24:39;24.05;;;13.75;;
36497;SDS011;22513;51.222;6.480;2022-09-24T07:27:05;24.92;;;13.52;;
36497;SDS011;22513;51.222;6.480;2022-09-24T07:29:31;24.27;;;13.98;;
36497;SDS011;22513;51.222;6.480;2022-09-24T07:31:57;24.05;;;13.88;;
36497;SDS011;22513;51.222;6.480;2022-09-24T07:34:23;18.15;;;12.93;;
36497;SDS011;22513;51.222;6.480;2022-09-24T07:36:49;20.45;;;12.68;;
36497;SDS011;22513;51.222;6.480;2022-09-24T07:39:14;23.85;;;13.98;;
36497;SDS011;22513;51.222;6.480;2022-09-24T07:41:40;26.55;;;14.77;;
36497;SDS011;22513;51.222;6.480;2022-09-24T07:44:07;25.92;;;14.07;;
36497;SDS011;22513;51.222;6.480;2022-09-24T07:46:33;21.55;;;12.60;;
36497;SDS011;22513;51.222;6.480;2022-09-24T07:48:59;21.88;;;13.75;;
36497;SDS011;22513;51.222;6.480;2022-09-24T07:51:25;20.80;;;12.73;;
36497;SDS011;22513;51.222;6.480;2022-09-24T07:53:52;19.15;;;12.77;;
36497;SDS011;22513;51.222;6.480;2022-09-24T07:56:19;20.25;;;12.50;;
36497;SDS011;22513;51.222;6.480;2022-09-24T07:58:49;18.17;;;12.57;;
36497;SDS011;22513;51.222;6.480;2022-09-24T08:01:16;24.10;;;11.75;;
36497;SDS011;22513;51.222;6.480;2022-09-24T08:03:42;20.85;;;12.57;;
36497;SDS011;22513;51.222;6.480;2022-09-24T08:06:08;20.70;;;11.27;;
36497;SDS011;22513;51.222;6.480;2022-09-24T08:08:34;25.95;;;12.00;;
36497;SDS011;22513;51.222;6.480;2022-09-24T08:11:06;18.85;;;11.48;;
36497;SDS011;22513;51.222;6.480;2022-09-24T08:13:33;18.02;;;11.15;;
36497;SDS011;22513;51.222;6.480;2022-09-24T08:15:59;20.52;;;11.15;;
36497;SDS011;22513;51.222;6.480;2022-09-24T08:18:26;22.13;;;11.00;;
36497;SDS011;22513;51.222;6.480;2022-09-24T08:20:52;20.67;;;11.10;;
36497;SDS011;22513;51.222;6.480;2022-09-24T08:23:18;18.15;;;10.48;;
36497;SDS011;22513;51.222;6.480;2022-09-24T08:25:45;18.02;;;10.45;;
36497;SDS011;22513;51.222;6.480;2022-09-24T08:28:13;21.80;;;10.55;;
36497;SDS011;22513;51.222;6.480;2022-09-24T08:30:41;15.68;;;9.75;;
36497;SDS011;22513;51.222;6.480;2022-09-24T08:33:07;15.40;;;9.30;;
36497;SDS011;22513;51.222;6.480;2022-09-24T08:35:33;17.10;;;9.95;;
36497;SDS011;22513;51.222;6.480;2022-09-24T08:37:59;17.35;;;9.95;;
36497;SDS011;22513;51.222;6.480;2022-09-24T08:40:27;17.75;;;9.57;;
36497;SDS011;22513;51.222;6.480;2022-09-24T08:45:30;15.82;;;8.77;;
36497;SDS011;22513;51.222;6.480;2022-09-24T08:48:22;15.40;;;10.07;;
36497;SDS011;22513;51.222;6.480;2022-09-24T08:50:54;17.13;;;9.43;;
36497;SDS011;22513;51.222;6.480;2022-09-24T08:53:26;16.20;;;8.93;;
36497;SDS011;22513;51.222;6.480;2022-09-24T08:56:02;15.80;;;9.35;;
36497;SDS011;22513;51.222;6.480;2022-09-24T09:03:41;18.10;;;8.93;;
36497;SDS011;22513;51.222;6.480;2022-09-24T09:12:25;12.35;;;8.30;;
36497;SDS011;22513;51.222;6.480;2022-09-24T09:18:02;13.02;;;7.45;;
36497;SDS011;22513;51.222;6.480;2022-09-24T09:20:49;8.25;;;6.63;;
36497;SDS011;22513;51.222;6.480;2022-09-24T09:25:41;10.07;;;6.43;;
36497;SDS011;22513;51.222;6.480;2022-09-24T09:28:15;10.95;;;7.13;;
36497;SDS011;22513;51.222;6.480;2022-09-24T09:30:52;13.18;;;6.97;;
36497;SDS011;22513;51.222;6.480;2022-09-24T09:41:48;10.18;;;6.95;;
36497;SDS011;22513;51.222;6.480;2022-09-24T09:44:28;10.70;;;7.30;;
36497;SDS011;22513;51.222;6.480;2022-09-24T09:50:43;12.38;;;7.53;;
36497;SDS011;22513;51.222;6.480;2022-09-24T09:52:57;11.25;;;7.28;;
36497;SDS011;22513;51.222;6.480;2022-09-24T09:55:27;9.60;;;7.43;;
36497;SDS011;22513;51.222;6.480;2022-09-24T09:58:00;9.00;;;7.22;;
36497;SDS011;22513;51.222;6.480;2022-09-24T10:00:41;11.30;;;6.65;;
36497;SDS011;22513;51.222;6.480;2022-09-24T10:03:21;11.60;;;6.13;;
36497;SDS011;22513;51.222;6.480;2022-09-24T10:05:55;10.98;;;6.05;;
36497;SDS011;22513;51.222;6.480;2022-09-24T10:08:30;8.55;;;4.97;;
36497;SDS011;22513;51.222;6.480;2022-09-24T10:10:57;9.73;;;6.10;;
36497;SDS011;22513;51.222;6.480;2022-09-24T10:13:24;8.73;;;6.45;;
36497;SDS011;22513;51.222;6.480;2022-09-24T10:18:33;9.82;;;6.10;;
36497;SDS011;22513;51.222;6.480;2022-09-24T10:21:00;9.50;;;5.85;;
36497;SDS011;22513;51.222;6.480;2022-09-24T10:23:36;8.32;;;4.95;;
36497;SDS011;22513;51.222;6.480;2022-09-24T10:26:04;7.85;;;5.90;;
36497;SDS011;22513;51.222;6.480;2022-09-24T10:28:31;10.00;;;6.60;;
36497;SDS011;22513;51.222;6.480;2022-09-24T10:31:19;6.85;;;4.85;;
36497;SDS011;22513;51.222;6.480;2022-09-24T10:33:49;8.25;;;5.60;;
36497;SDS011;22513;51.222;6.480;2022-09-24T10:36:19;8.73;;;5.93;;
36497;SDS011;22513;51.222;6.480;2022-09-24T10:38:47;9.93;;;5.97;;
36497;SDS011;22513;51.222;6.480;2022-09-24T10:41:26;8.15;;;5.68;;
36497;SDS011;22513;51.222;6.480;2022-09-24T10:43:56;8.88;;;5.65;;
36497;SDS011;22513;51.222;6.480;2022-09-24T10:49:15;8.20;;;6.13;;
36497;SDS011;22513;51.222;6.480;2022-09-24T10:54:42;9.45;;;7.00;;
36497;SDS011;22513;51.222;6.480;2022-09-24T10:57:24;7.40;;;5.82;;
36497;SDS011;22513;51.222;6.480;2022-09-24T11:00:29;8.77;;;6.57;;
36497;SDS011;22513;51.222;6.480;2022-09-24T11:05:30;11.70;;;6.90;;
36497;SDS011;22513;51.222;6.480;2022-09-24T11:10:49;8.60;;;6.28;;
36497;SDS011;22513;51.222;6.480;2022-09-24T11:29:13;9.13;;;6.35;;
36497;SDS011;22513;51.222;6.480;2022-09-24T11:32:03;12.75;;;8.13;;
36497;SDS011;22513;51.222;6.480;2022-09-24T11:56:05;8.80;;;6.03;;
36497;SDS011;22513;51.222;6.480;2022-09-24T12:01:43;9.50;;;6.10;;
36497;SDS011;22513;51.222;6.480;2022-09-24T12:07:14;8.43;;;6.28;;
36497;SDS011;22513;51.222;6.480;2022-09-24T12:12:20;8.10;;;5.80;;
36497;SDS011;22513;51.222;6.480;2022-09-24T12:22:56;7.72;;;6.20;;
36497;SDS011;22513;51.222;6.480;2022-09-24T12:25:42;8.70;;;5.70;;
36497;SDS011;22513;51.222;6.480;2022-09-24T12:28:11;9.75;;;6.25;;
36497;SDS011;22513;51.222;6.480;2022-09-24T12:30:59;7.22;;;6.20;;
36497;SDS011;22513;51.222;6.480;2022-09-24T12:33:54;8.95;;;6.13;;
36497;SDS011;22513;51.222;6.480;2022-09-24T12:36:42;8.00;;;6.55;;
36497;SDS011;22513;51.222;6.480;2022-09-24T12:39:30;8.63;;;6.50;;
36497;SDS011;22513;51.222;6.480;2022-09-24T12:42:10;8.55;;;6.22;;
36497;SDS011;22513;51.222;6.480;2022-09-24T12:44:41;10.35;;;5.85;;
36497;SDS011;22513;51.222;6.480;2022-09-24T12:47:17;9.98;;;6.25;;
36497;SDS011;22513;51.222;6.480;2022-09-24T12:49:47;9.00;;;6.30;;
36497;SDS011;22513;51.222;6.480;2022-09-24T12:55:02;7.95;;;5.90;;
36497;SDS011;22513;51.222;6.480;2022-09-24T12:57:36;8.13;;;5.75;;
36497;SDS011;22513;51.222;6.480;2022-09-24T13:02:57;7.80;;;5.45;;
36497;SDS011;22513;51.222;6.480;2022-09-24T13:10:32;8.80;;;6.10;;
36497;SDS011;22513;51.222;6.480;2022-09-24T13:13:00;8.90;;;5.32;;
36497;SDS011;22513;51.222;6.480;2022-09-24T13:20:39;9.13;;;5.55;;
36497;SDS011;22513;51.222;6.480;2022-09-24T13:23:27;8.18;;;5.93;;
36497;SDS011;22513;51.222;6.480;2022-09-24T13:25:56;8.25;;;6.47;;
36497;SDS011;22513;51.222;6.480;2022-09-24T13:28:30;8.63;;;5.90;;
36497;SDS011;22513;51.222;6.480;2022-09-24T13:31:02;10.25;;;6.85;;
36497;SDS011;22513;51.222;6.480;2022-09-24T13:33:44;7.45;;;6.18;;
36497;SDS011;22513;51.222;6.480;2022-09-24T13:41:31;10.38;;;6.57;;
36497;SDS011;22513;51.222;6.480;2022-09-24T13:44:22;8.18;;;6.68;;
36497;SDS011;22513;51.222;6.480;2022-09-24T13:46:55;10.40;;;6.70;;
36497;SDS011;22513;51.222;6.480;2022-09-24T13:49:48;8.85;;;6.45;;
36497;SDS011;22513;51.222;6.480;2022-09-24T13:52:29;9.30;;;6.18;;
36497;SDS011;22513;51.222;6.480;2022-09-24T13:55:00;9.38;;;6.88;;
36497;SDS011;22513;51.222;6.480;2022-09-24T13:57:41;9.75;;;7.38;;
36497;SDS011;22513;51.222;6.480;2022-09-24T14:02:40;10.25;;;7.20;;
36497;SDS011;22513;51.222;6.480;2022-09-24T14:05:15;9.10;;;7.32;;
36497;SDS011;22513;51.222;6.480;2022-09-24T14:07:50;10.40;;;7.15;;
36497;SDS011;22513;51.222;6.480;2022-09-24T14:10:21;11.60;;;7.03;;
36497;SDS011;22513;51.222;6.480;2022-09-24T14:12:57;9.98;;;6.82;;
36497;SDS011;22513;51.222;6.480;2022-09-24T14:18:15;9.60;;;6.85;;
36497;SDS011;22513;51.222;6.480;2022-09-24T14:20:41;11.10;;;7.05;;
36497;SDS011;22513;51.222;6.480;2022-09-24T14:23:08;12.30;;;7.25;;
36497;SDS011;22513;51.222;6.480;2022-09-24T14:25:41;10.43;;;6.95;;
36497;SDS011;22513;51.222;6.480;2022-09-24T14:28:08;11.02;;;6.68;;
36497;SDS011;22513;51.222;6.480;2022-09-24T14:30:36;10.77;;;6.70;;
36497;SDS011;22513;51.222;6.480;2022-09-24T14:33:13;9.75;;;7.10;;
36497;SDS011;22513;51.222;6.480;2022-09-24T14:35:43;10.25;;;7.43;;
36497;SDS011;22513;51.222;6.480;2022-09-24T14:38:16;9.55;;;6.90;;
36497;SDS011;22513;51.222;6.480;2022-09-24T14:40:47;10.02;;;7.68;;
36497;SDS011;22513;51.222;6.480;2022-09-24T14:43:27;11.95;;;8.68;;
36497;SDS011;22513;51.222;6.480;2022-09-24T14:46:02;13.65;;;8.40;;
36497;SDS011;22513;51.222;6.480;2022-09-24T14:48:33;9.95;;;7.18;;
36497;SDS011;22513;51.222;6.480;2022-09-24T14:50:59;10.50;;;7.63;;
36497;SDS011;22513;51.222;6.480;2022-09-24T14:53:29;11.57;;;8.32;;
36497;SDS011;22513;51.222;6.480;2022-09-24T14:55:58;11.65;;;8.15;;
36497;SDS011;22513;51.222;6.480;2022-09-24T15:00:53;13.20;;;9.60;;
36497;SDS011;22513;51.222;6.480;2022-09-24T15:03:26;12.40;;;10.32;;
36497;SDS011;22513;51.222;6.480;2022-09-24T15:06:29;12.57;;;9.48;;
36497;SDS011;22513;51.222;6.480;2022-09-24T15:11:31;14.32;;;10.20;;
36497;SDS011;22513;51.222;6.480;2022-09-24T15:14:11;13.70;;;9.65;;
36497;SDS011;22513;51.222;6.480;2022-09-24T15:16:51;15.15;;;10.82;;
36497;SDS011;22513;51.222;6.480;2022-09-24T15:21:55;21.05;;;14.70;;
36497;SDS011;22513;51.222;6.480;2022-09-24T15:24:22;18.58;;;14.57;;
36497;SDS011;22513;51.222;6.480;2022-09-24T15:27:02;21.45;;;15.25;;
36497;SDS011;22513;51.222;6.480;2022-09-24T15:29:39;19.55;;;15.15;;
36497;SDS011;22513;51.222;6.480;2022-09-24T15:32:13;17.85;;;14.07;;
36497;SDS011;22513;51.222;6.480;2022-09-24T15:34:41;18.50;;;12.82;;
36497;SDS011;22513;51.222;6.480;2022-09-24T15:37:07;17.90;;;13.82;;
36497;SDS011;22513;51.222;6.480;2022-09-24T15:39:37;19.27;;;12.93;;
36497;SDS011;22513;51.222;6.480;2022-09-24T15:42:04;17.65;;;13.40;;
36497;SDS011;22513;51.222;6.480;2022-09-24T15:44:29;17.50;;;12.70;;
36497;SDS011;22513;51.222;6.480;2022-09-24T15:46:55;16.80;;;12.23;;
36497;SDS011;22513;51.222;6.480;2022-09-24T15:49:21;16.38;;;11.75;;
36497;SDS011;22513;51.222;6.480;2022-09-24T15:51:48;16.40;;;11.27;;
36497;SDS011;22513;51.222;6.480;2022-09-24T15:54:25;15.32;;;12.02;;
36497;SDS011;22513;51.222;6.480;2022-09-24T15:56:51;18.30;;;13.82;;
36497;SDS011;22513;51.222;6.480;2022-09-24T15:59:17;17.88;;;12.35;;
36497;SDS011;22513;51.222;6.480;2022-09-24T16:01:44;17.77;;;13.35;;
36497;SDS011;22513;51.222;6.480;2022-09-24T16:04:10;19.98;;;14.90;;
36497;SDS011;22513;51.222;6.480;2022-09-24T16:06:36;15.68;;;13.73;;
36497;SDS011;22513;51.222;6.480;2022-09-24T16:09:02;20.58;;;14.00;;
36497;SDS011;22513;51.222;6.480;2022-09-24T16:11:29;18.10;;;13.65;;
36497;SDS011;22513;51.222;6.480;2022-09-24T16:13:55;16.92;;;12.73;;
36497;SDS011;22513;51.222;6.480;2022-09-24T16:16:20;17.17;;;12.38;;
36497;SDS011;22513;51.222;6.480;2022-09-24T16:18:46;14.73;;;11.43;;
36497;SDS011;22513;51.222;6.480;2022-09-24T16:21:11;14.27;;;11.73;;
36497;SDS011;22513;51.222;6.480;2022-09-24T16:26:03;16.20;;;11.90;;
36497;SDS011;22513;51.222;6.480;2022-09-24T16:28:29;15.05;;;12.35;;
36497;SDS011;22513;51.222;6.480;2022-09-24T16:30:55;17.48;;;12.48;;
36497;SDS011;22513;51.222;6.480;2022-09-24T16:33:21;14.82;;;11.43;;
36497;SDS011;22513;51.222;6.480;2022-09-24T16:35:48;15.50;;;11.65;;
36497;SDS011;22513;51.222;6.480;2022-09-24T16:38:13;17.40;;;13.05;;
36497;SDS011;22513;51.222;6.480;2022-09-24T16:40:39;18.55;;;13.05;;
36497;SDS011;22513;51.222;6.480;2022-09-24T16:43:05;17.83;;;13.50;;
36497;SDS011;22513;51.222;6.480;2022-09-24T16:45:31;18.58;;;13.95;;
36497;SDS011;22513;51.222;6.480;2022-09-24T16:47:57;18.25;;;13.35;;
36497;SDS011;22513;51.222;6.480;2022-09-24T16:50:23;19.88;;;13.43;;
36497;SDS011;22513;51.222;6.480;2022-09-24T16:52:49;17.42;;;13.57;;
36497;SDS011;22513;51.222;6.480;2022-09-24T16:55:16;18.92;;;13.85;;
36497;SDS011;22513;51.222;6.480;2022-09-24T16:57:42;20.45;;;14.68;;
36497;SDS011;22513;51.222;6.480;2022-09-24T17:00:08;17.75;;;12.25;;
36497;SDS011;22513;51.222;6.480;2022-09-24T17:02:34;20.13;;;14.60;;
36497;SDS011;22513;51.222;6.480;2022-09-24T17:05:00;20.55;;;14.07;;
36497;SDS011;22513;51.222;6.480;2022-09-24T17:07:29;22.17;;;16.25;;
36497;SDS011;22513;51.222;6.480;2022-09-24T17:09:56;23.00;;;17.77;;
36497;SDS011;22513;51.222;6.480;2022-09-24T17:12:37;25.52;;;18.38;;
36497;SDS011;22513;51.222;6.480;2022-09-24T17:15:03;25.05;;;17.77;;
36497;SDS011;22513;51.222;6.480;2022-09-24T17:17:29;28.55;;;19.38;;
36497;SDS011;22513;51.222;6.480;2022-09-24T17:19:55;31.15;;;21.13;;
36497;SDS011;22513;51.222;6.480;2022-09-24T17:22:20;25.35;;;17.35;;